sensor_id;sensor_type;location;lat;lon;timestamp;pressure;altitude;pressure_sealevel;temperature
74321;BMP280;62738;45.772;4.804;2023-03-20T00:02:04;100204.75;;;12.62
74321;BMP280;62738;45.772;4.804;2023-03-20T00:04:32;100204.38;;;13.49
74321;BMP280;62738;45.772;4.804;2023-03-20T00:06:58;100201.50;;;13.40
74321;BMP280;62738;45.772;4.804;2023-03-20T00:09:25;100209.03;;;13.30
74321;BMP280;62738;45.772;4.804;2023-03-20T00:11:53;100211.53;;;13.43
74321;BMP280;62738;45.772;4.804;2023-03-20T00:14:22;100222.97;;;13.47
74321;BMP280;62738;45.772;4.804;2023-03-20T00:16:50;100219.72;;;13.41
74321;BMP280;62738;45.772;4.804;2023-03-20T00:21:44;100218.41;;;13.00
74321;BMP280;62738;45.772;4.804;2023-03-20T00:24:14;100214.91;;;12.99
74321;BMP280;62738;45.772;4.804;2023-03-20T00:26:42;100218.69;;;12.87
74321;BMP280;62738;45.772;4.804;2023-03-20T00:29:16;100206.94;;;12.71
74321;BMP280;62738;45.772;4.804;2023-03-20T00:31:45;100204.91;;;12.39
74321;BMP280;62738;45.772;4.804;2023-03-20T00:34:13;100206.03;;;12.36
74321;BMP280;62738;45.772;4.804;2023-03-20T00:36:40;100197.91;;;12.63
74321;BMP280;62738;45.772;4.804;2023-03-20T00:39:07;100199.16;;;12.69
74321;BMP280;62738;45.772;4.804;2023-03-20T00:44:23;100196.97;;;12.60
74321;BMP280;62738;45.772;4.804;2023-03-20T00:46:56;100196.97;;;12.60
74321;BMP280;62738;45.772;4.804;2023-03-20T00:49:29;100196.16;;;13.17
74321;BMP280;62738;45.772;4.804;2023-03-20T00:51:58;100197.59;;;13.43
74321;BMP280;62738;45.772;4.804;2023-03-20T00:54:25;100190.91;;;13.21
74321;BMP280;62738;45.772;4.804;2023-03-20T00:57:00;100191.19;;;12.91
74321;BMP280;62738;45.772;4.804;2023-03-20T00:59:31;100194.63;;;12.82
74321;BMP280;62738;45.772;4.804;2023-03-20T01:02:00;100195.50;;;12.59
74321;BMP280;62738;45.772;4.804;2023-03-20T01:04:48;100206.91;;;12.79
74321;BMP280;62738;45.772;4.804;2023-03-20T01:07:15;100204.78;;;13.29
74321;BMP280;62738;45.772;4.804;2023-03-20T01:09:41;100201.75;;;12.67
74321;BMP280;62738;45.772;4.804;2023-03-20T01:12:10;100205.06;;;12.49
74321;BMP280;62738;45.772;4.804;2023-03-20T01:14:40;100201.53;;;12.98
74321;BMP280;62738;45.772;4.804;2023-03-20T01:17:17;100202.91;;;13.31
74321;BMP280;62738;45.772;4.804;2023-03-20T01:19:45;100208.88;;;12.86
74321;BMP280;62738;45.772;4.804;2023-03-20T01:22:12;100202.81;;;12.80
74321;BMP280;62738;45.772;4.804;2023-03-20T01:24:39;100198.19;;;12.74
74321;BMP280;62738;45.772;4.804;2023-03-20T01:27:17;100193.25;;;12.65
74321;BMP280;62738;45.772;4.804;2023-03-20T01:29:45;100188.06;;;12.37
74321;BMP280;62738;45.772;4.804;2023-03-20T01:32:14;100180.69;;;12.24
74321;BMP280;62738;45.772;4.804;2023-03-20T01:34:42;100191.53;;;12.45
74321;BMP280;62738;45.772;4.804;2023-03-20T01:37:12;100183.34;;;12.47
74321;BMP280;62738;45.772;4.804;2023-03-20T01:39:39;100178.38;;;12.06
74321;BMP280;62738;45.772;4.804;2023-03-20T01:42:06;100174.63;;;12.11
74321;BMP280;62738;45.772;4.804;2023-03-20T01:44:34;100171.66;;;12.16
74321;BMP280;62738;45.772;4.804;2023-03-20T01:47:02;100170.91;;;12.48
74321;BMP280;62738;45.772;4.804;2023-03-20T01:52:38;100163.47;;;13.17
74321;BMP280;62738;45.772;4.804;2023-03-20T01:55:05;100168.06;;;13.05
74321;BMP280;62738;45.772;4.804;2023-03-20T01:57:32;100169.78;;;13.18
74321;BMP280;62738;45.772;4.804;2023-03-20T02:00:04;100161.50;;;13.10
74321;BMP280;62738;45.772;4.804;2023-03-20T02:02:32;100163.59;;;13.02
74321;BMP280;62738;45.772;4.804;2023-03-20T02:05:04;100155.09;;;13.17
74321;BMP280;62738;45.772;4.804;2023-03-20T02:07:33;100153.38;;;13.22
74321;BMP280;62738;45.772;4.804;2023-03-20T02:10:03;100158.34;;;12.89
74321;BMP280;62738;45.772;4.804;2023-03-20T02:12:30;100148.59;;;12.81
74321;BMP280;62738;45.772;4.804;2023-03-20T02:14:57;100154.75;;;12.96
74321;BMP280;62738;45.772;4.804;2023-03-20T02:17:26;100150.25;;;13.01
74321;BMP280;62738;45.772;4.804;2023-03-20T02:20:06;100151.88;;;12.62
74321;BMP280;62738;45.772;4.804;2023-03-20T02:26:19;100158.66;;;11.79
74321;BMP280;62738;45.772;4.804;2023-03-20T02:45:50;100165.78;;;11.57
74321;BMP280;62738;45.772;4.804;2023-03-20T02:59:24;100152.16;;;11.06
74321;BMP280;62738;45.772;4.804;2023-03-20T03:01:58;100154.97;;;10.98
74321;BMP280;62738;45.772;4.804;2023-03-20T03:04:32;100148.47;;;10.96
74321;BMP280;62738;45.772;4.804;2023-03-20T03:07:01;100162.34;;;10.88
74321;BMP280;62738;45.772;4.804;2023-03-20T03:09:32;100162.16;;;10.86
74321;BMP280;62738;45.772;4.804;2023-03-20T03:12:11;100157.91;;;10.85
74321;BMP280;62738;45.772;4.804;2023-03-20T03:14:42;100159.94;;;10.77
74321;BMP280;62738;45.772;4.804;2023-03-20T03:17:11;100158.66;;;10.93
74321;BMP280;62738;45.772;4.804;2023-03-20T03:19:42;100165.88;;;10.96
74321;BMP280;62738;45.772;4.804;2023-03-20T03:22:11;100158.28;;;10.97
74321;BMP280;62738;45.772;4.804;2023-03-20T03:24:42;100163.28;;;10.83
74321;BMP280;62738;45.772;4.804;2023-03-20T03:29:57;100161.03;;;10.74
74321;BMP280;62738;45.772;4.804;2023-03-20T03:32:36;100171.34;;;10.51
74321;BMP280;62738;45.772;4.804;2023-03-20T03:35:05;100175.59;;;10.44
74321;BMP280;62738;45.772;4.804;2023-03-20T03:40:33;100182.66;;;10.53
74321;BMP280;62738;45.772;4.804;2023-03-20T03:43:06;100186.69;;;10.37
74321;BMP280;62738;45.772;4.804;2023-03-20T03:45:38;100188.66;;;10.21
74321;BMP280;62738;45.772;4.804;2023-03-20T03:48:14;100189.13;;;10.48
74321;BMP280;62738;45.772;4.804;2023-03-20T03:51:02;100194.91;;;10.06
74321;BMP280;62738;45.772;4.804;2023-03-20T03:53:35;100200.13;;;10.17
74321;BMP280;62738;45.772;4.804;2023-03-20T03:56:05;100206.84;;;10.37
74321;BMP280;62738;45.772;4.804;2023-03-20T03:58:38;100211.75;;;10.16
74321;BMP280;62738;45.772;4.804;2023-03-20T04:01:06;100207.50;;;10.07
74321;BMP280;62738;45.772;4.804;2023-03-20T04:03:39;100199.47;;;10.47
74321;BMP280;62738;45.772;4.804;2023-03-20T04:06:10;100211.00;;;10.15
74321;BMP280;62738;45.772;4.804;2023-03-20T04:08:41;100206.06;;;9.85
74321;BMP280;62738;45.772;4.804;2023-03-20T04:11:17;100215.63;;;9.77
74321;BMP280;62738;45.772;4.804;2023-03-20T04:13:46;100208.78;;;9.78
74321;BMP280;62738;45.772;4.804;2023-03-20T04:16:14;100205.47;;;9.79
74321;BMP280;62738;45.772;4.804;2023-03-20T04:18:42;100204.16;;;9.73
74321;BMP280;62738;45.772;4.804;2023-03-20T04:21:09;100208.25;;;9.79
74321;BMP280;62738;45.772;4.804;2023-03-20T04:23:36;100203.19;;;10.50
74321;BMP280;62738;45.772;4.804;2023-03-20T04:26:03;100212.88;;;9.84
74321;BMP280;62738;45.772;4.804;2023-03-20T04:28:30;100208.34;;;9.95
74321;BMP280;62738;45.772;4.804;2023-03-20T04:30:58;100213.56;;;10.06
74321;BMP280;62738;45.772;4.804;2023-03-20T04:33:26;100207.38;;;9.92
74321;BMP280;62738;45.772;4.804;2023-03-20T04:35:53;100214.31;;;9.78
74321;BMP280;62738;45.772;4.804;2023-03-20T04:38:21;100212.13;;;9.84
74321;BMP280;62738;45.772;4.804;2023-03-20T04:40:49;100210.28;;;10.15
74321;BMP280;62738;45.772;4.804;2023-03-20T04:43:16;100213.50;;;10.42
74321;BMP280;62738;45.772;4.804;2023-03-20T04:45:42;100208.88;;;10.37
74321;BMP280;62738;45.772;4.804;2023-03-20T04:48:09;100217.03;;;10.42
74321;BMP280;62738;45.772;4.804;2023-03-20T04:50:36;100224.06;;;10.51
74321;BMP280;62738;45.772;4.804;2023-03-20T04:53:03;100218.81;;;10.24
74321;BMP280;62738;45.772;4.804;2023-03-20T04:55:30;100221.47;;;10.38
74321;BMP280;62738;45.772;4.804;2023-03-20T04:57:56;100214.66;;;10.10
74321;BMP280;62738;45.772;4.804;2023-03-20T05:00:23;100218.91;;;10.55
74321;BMP280;62738;45.772;4.804;2023-03-20T05:02:50;100221.00;;;11.07
74321;BMP280;62738;45.772;4.804;2023-03-20T05:05:16;100217.88;;;11.03
74321;BMP280;62738;45.772;4.804;2023-03-20T05:07:43;100216.38;;;11.02
74321;BMP280;62738;45.772;4.804;2023-03-20T05:10:10;100204.50;;;10.72
74321;BMP280;62738;45.772;4.804;2023-03-20T05:12:37;100214.63;;;10.46
74321;BMP280;62738;45.772;4.804;2023-03-20T05:15:03;100215.03;;;10.50
74321;BMP280;62738;45.772;4.804;2023-03-20T05:17:30;100215.44;;;10.77
74321;BMP280;62738;45.772;4.804;2023-03-20T05:19:57;100220.63;;;10.73
74321;BMP280;62738;45.772;4.804;2023-03-20T05:22:23;100225.03;;;10.61
74321;BMP280;62738;45.772;4.804;2023-03-20T05:24:50;100216.66;;;10.46
74321;BMP280;62738;45.772;4.804;2023-03-20T05:27:17;100222.22;;;10.46
74321;BMP280;62738;45.772;4.804;2023-03-20T05:29:44;100223.28;;;10.43
74321;BMP280;62738;45.772;4.804;2023-03-20T05:32:11;100219.69;;;10.63
74321;BMP280;62738;45.772;4.804;2023-03-20T05:34:38;100226.16;;;10.73
74321;BMP280;62738;45.772;4.804;2023-03-20T05:37:05;100223.22;;;10.86
74321;BMP280;62738;45.772;4.804;2023-03-20T05:39:31;100217.13;;;11.41
74321;BMP280;62738;45.772;4.804;2023-03-20T05:41:58;100212.88;;;11.25
74321;BMP280;62738;45.772;4.804;2023-03-20T05:44:24;100224.72;;;10.87
74321;BMP280;62738;45.772;4.804;2023-03-20T05:46:51;100228.25;;;10.95
74321;BMP280;62738;45.772;4.804;2023-03-20T05:49:19;100225.66;;;10.97
74321;BMP280;62738;45.772;4.804;2023-03-20T05:51:47;100223.19;;;10.63
74321;BMP280;62738;45.772;4.804;2023-03-20T05:54:14;100232.56;;;10.38
74321;BMP280;62738;45.772;4.804;2023-03-20T05:56:41;100246.94;;;10.28
74321;BMP280;62738;45.772;4.804;2023-03-20T05:59:10;100233.66;;;10.35
74321;BMP280;62738;45.772;4.804;2023-03-20T06:01:37;100254.22;;;10.47
74321;BMP280;62738;45.772;4.804;2023-03-20T06:04:04;100262.13;;;10.43
74321;BMP280;62738;45.772;4.804;2023-03-20T06:06:31;100258.09;;;10.51
74321;BMP280;62738;45.772;4.804;2023-03-20T06:08:58;100266.59;;;10.38
74321;BMP280;62738;45.772;4.804;2023-03-20T06:11:24;100254.75;;;10.38
74321;BMP280;62738;45.772;4.804;2023-03-20T06:13:51;100263.81;;;10.46
74321;BMP280;62738;45.772;4.804;2023-03-20T06:16:20;100254.00;;;10.37
74321;BMP280;62738;45.772;4.804;2023-03-20T06:18:47;100268.88;;;10.70
74321;BMP280;62738;45.772;4.804;2023-03-20T06:21:14;100264.31;;;11.03
74321;BMP280;62738;45.772;4.804;2023-03-20T06:23:41;100272.22;;;10.76
74321;BMP280;62738;45.772;4.804;2023-03-20T06:26:08;100261.50;;;10.73
74321;BMP280;62738;45.772;4.804;2023-03-20T06:28:36;100260.84;;;10.44
74321;BMP280;62738;45.772;4.804;2023-03-20T06:31:03;100261.66;;;10.16
74321;BMP280;62738;45.772;4.804;2023-03-20T06:33:30;100269.75;;;10.06
74321;BMP280;62738;45.772;4.804;2023-03-20T06:35:57;100267.88;;;10.01
74321;BMP280;62738;45.772;4.804;2023-03-20T06:38:23;100262.72;;;10.05
74321;BMP280;62738;45.772;4.804;2023-03-20T06:40:50;100265.22;;;10.24
74321;BMP280;62738;45.772;4.804;2023-03-20T06:43:17;100279.06;;;10.67
74321;BMP280;62738;45.772;4.804;2023-03-20T06:45:44;100279.63;;;10.74
74321;BMP280;62738;45.772;4.804;2023-03-20T06:48:11;100276.84;;;10.58
74321;BMP280;62738;45.772;4.804;2023-03-20T06:50:38;100275.75;;;10.77
74321;BMP280;62738;45.772;4.804;2023-03-20T06:53:05;100273.38;;;10.81
74321;BMP280;62738;45.772;4.804;2023-03-20T06:55:32;100275.41;;;10.80
74321;BMP280;62738;45.772;4.804;2023-03-20T06:57:58;100265.84;;;10.38
74321;BMP280;62738;45.772;4.804;2023-03-20T07:00:25;100271.72;;;10.85
74321;BMP280;62738;45.772;4.804;2023-03-20T07:02:52;100269.09;;;10.80
74321;BMP280;62738;45.772;4.804;2023-03-20T07:05:21;100270.81;;;11.05
74321;BMP280;62738;45.772;4.804;2023-03-20T07:07:48;100260.81;;;11.02
74321;BMP280;62738;45.772;4.804;2023-03-20T07:10:14;100269.72;;;11.24
74321;BMP280;62738;45.772;4.804;2023-03-20T07:12:42;100264.47;;;10.75
74321;BMP280;62738;45.772;4.804;2023-03-20T07:15:10;100261.22;;;10.40
74321;BMP280;62738;45.772;4.804;2023-03-20T07:17:36;100260.56;;;10.62
74321;BMP280;62738;45.772;4.804;2023-03-20T07:20:03;100260.22;;;10.66
74321;BMP280;62738;45.772;4.804;2023-03-20T07:22:30;100259.69;;;10.83
74321;BMP280;62738;45.772;4.804;2023-03-20T07:24:57;100269.31;;;10.82
74321;BMP280;62738;45.772;4.804;2023-03-20T07:27:23;100267.09;;;10.88
74321;BMP280;62738;45.772;4.804;2023-03-20T07:29:50;100271.94;;;10.44
74321;BMP280;62738;45.772;4.804;2023-03-20T07:32:18;100264.91;;;10.43
74321;BMP280;62738;45.772;4.804;2023-03-20T07:34:46;100278.00;;;10.86
74321;BMP280;62738;45.772;4.804;2023-03-20T07:37:12;100270.25;;;10.92
74321;BMP280;62738;45.772;4.804;2023-03-20T07:39:39;100262.66;;;11.07
74321;BMP280;62738;45.772;4.804;2023-03-20T07:42:06;100268.03;;;10.83
74321;BMP280;62738;45.772;4.804;2023-03-20T07:44:33;100263.16;;;10.68
74321;BMP280;62738;45.772;4.804;2023-03-20T07:46:59;100270.84;;;10.47
74321;BMP280;62738;45.772;4.804;2023-03-20T07:49:26;100265.31;;;10.47
74321;BMP280;62738;45.772;4.804;2023-03-20T07:51:53;100275.47;;;10.44
74321;BMP280;62738;45.772;4.804;2023-03-20T07:54:22;100274.44;;;10.62
74321;BMP280;62738;45.772;4.804;2023-03-20T07:56:49;100278.53;;;10.77
74321;BMP280;62738;45.772;4.804;2023-03-20T07:59:16;100278.91;;;10.65
74321;BMP280;62738;45.772;4.804;2023-03-20T08:01:43;100286.47;;;10.65
74321;BMP280;62738;45.772;4.804;2023-03-20T08:04:10;100287.25;;;10.81
74321;BMP280;62738;45.772;4.804;2023-03-20T08:06:37;100288.91;;;10.84
74321;BMP280;62738;45.772;4.804;2023-03-20T08:09:06;100287.28;;;10.88
74321;BMP280;62738;45.772;4.804;2023-03-20T08:11:32;100294.72;;;11.24
74321;BMP280;62738;45.772;4.804;2023-03-20T08:14:00;100290.09;;;11.41
74321;BMP280;62738;45.772;4.804;2023-03-20T08:16:26;100293.44;;;11.25
74321;BMP280;62738;45.772;4.804;2023-03-20T08:18:53;100293.81;;;11.52
74321;BMP280;62738;45.772;4.804;2023-03-20T08:21:27;100305.25;;;11.71
74321;BMP280;62738;45.772;4.804;2023-03-20T08:23:54;100298.19;;;11.92
74321;BMP280;62738;45.772;4.804;2023-03-20T08:26:22;100305.03;;;11.91
74321;BMP280;62738;45.772;4.804;2023-03-20T08:28:49;100307.09;;;11.68
74321;BMP280;62738;45.772;4.804;2023-03-20T08:31:17;100301.53;;;11.30
74321;BMP280;62738;45.772;4.804;2023-03-20T08:33:44;100309.34;;;11.32
74321;BMP280;62738;45.772;4.804;2023-03-20T08:36:12;100305.25;;;11.86
74321;BMP280;62738;45.772;4.804;2023-03-20T08:38:41;100300.63;;;11.81
74321;BMP280;62738;45.772;4.804;2023-03-20T08:41:08;100291.16;;;11.84
74321;BMP280;62738;45.772;4.804;2023-03-20T08:43:34;100300.63;;;11.88
74321;BMP280;62738;45.772;4.804;2023-03-20T08:46:01;100288.38;;;11.69
74321;BMP280;62738;45.772;4.804;2023-03-20T08:48:28;100304.34;;;11.23
74321;BMP280;62738;45.772;4.804;2023-03-20T08:50:55;100295.63;;;11.87
74321;BMP280;62738;45.772;4.804;2023-03-20T08:53:22;100300.38;;;12.17
74321;BMP280;62738;45.772;4.804;2023-03-20T08:55:50;100295.63;;;12.34
74321;BMP280;62738;45.772;4.804;2023-03-20T08:58:17;100303.56;;;12.46
74321;BMP280;62738;45.772;4.804;2023-03-20T09:00:44;100305.06;;;11.16
74321;BMP280;62738;45.772;4.804;2023-03-20T09:03:15;100300.25;;;11.69
74321;BMP280;62738;45.772;4.804;2023-03-20T09:05:44;100304.66;;;12.10
74321;BMP280;62738;45.772;4.804;2023-03-20T09:08:11;100310.75;;;12.56
74321;BMP280;62738;45.772;4.804;2023-03-20T09:10:37;100313.06;;;12.35
74321;BMP280;62738;45.772;4.804;2023-03-20T09:13:06;100326.69;;;12.16
74321;BMP280;62738;45.772;4.804;2023-03-20T09:15:52;100317.88;;;12.42
74321;BMP280;62738;45.772;4.804;2023-03-20T09:18:19;100321.72;;;11.99
74321;BMP280;62738;45.772;4.804;2023-03-20T09:20:47;100319.84;;;12.17
74321;BMP280;62738;45.772;4.804;2023-03-20T09:23:14;100322.16;;;12.36
74321;BMP280;62738;45.772;4.804;2023-03-20T09:25:40;100325.97;;;12.08
74321;BMP280;62738;45.772;4.804;2023-03-20T09:28:07;100325.16;;;12.30
74321;BMP280;62738;45.772;4.804;2023-03-20T09:30:36;100332.19;;;12.31
74321;BMP280;62738;45.772;4.804;2023-03-20T09:33:04;100333.00;;;12.09
74321;BMP280;62738;45.772;4.804;2023-03-20T09:35:31;100332.91;;;12.39
74321;BMP280;62738;45.772;4.804;2023-03-20T09:37:58;100335.66;;;11.84
74321;BMP280;62738;45.772;4.804;2023-03-20T09:40:30;100339.88;;;11.92
74321;BMP280;62738;45.772;4.804;2023-03-20T09:43:09;100343.91;;;12.22
74321;BMP280;62738;45.772;4.804;2023-03-20T09:48:39;100344.72;;;12.55
74321;BMP280;62738;45.772;4.804;2023-03-20T09:51:15;100349.59;;;12.39
74321;BMP280;62738;45.772;4.804;2023-03-20T09:53:54;100341.19;;;12.54
74321;BMP280;62738;45.772;4.804;2023-03-20T09:56:28;100346.19;;;12.56
74321;BMP280;62738;45.772;4.804;2023-03-20T09:58:57;100351.91;;;12.18
74321;BMP280;62738;45.772;4.804;2023-03-20T10:01:54;100336.81;;;12.36
74321;BMP280;62738;45.772;4.804;2023-03-20T10:04:24;100336.72;;;12.59
74321;BMP280;62738;45.772;4.804;2023-03-20T10:06:52;100331.31;;;12.61
74321;BMP280;62738;45.772;4.804;2023-03-20T10:09:24;100336.00;;;12.91
74321;BMP280;62738;45.772;4.804;2023-03-20T10:15:07;100337.31;;;12.90
74321;BMP280;62738;45.772;4.804;2023-03-20T10:23:12;100333.97;;;12.91
74321;BMP280;62738;45.772;4.804;2023-03-20T10:25:49;100332.06;;;12.61
74321;BMP280;62738;45.772;4.804;2023-03-20T10:28:51;100324.50;;;12.87
74321;BMP280;62738;45.772;4.804;2023-03-20T10:34:17;100328.16;;;13.88
74321;BMP280;62738;45.772;4.804;2023-03-20T10:36:52;100325.25;;;13.79
74321;BMP280;62738;45.772;4.804;2023-03-20T10:42:18;100320.59;;;12.90
74321;BMP280;62738;45.772;4.804;2023-03-20T10:44:52;100326.19;;;13.14
74321;BMP280;62738;45.772;4.804;2023-03-20T10:47:22;100322.84;;;13.41
74321;BMP280;62738;45.772;4.804;2023-03-20T10:49:54;100311.19;;;13.10
74321;BMP280;62738;45.772;4.804;2023-03-20T10:52:35;100319.59;;;13.27
74321;BMP280;62738;45.772;4.804;2023-03-20T10:55:14;100316.41;;;14.07
74321;BMP280;62738;45.772;4.804;2023-03-20T10:57:46;100322.09;;;13.99
74321;BMP280;62738;45.772;4.804;2023-03-20T11:00:19;100316.97;;;14.23
74321;BMP280;62738;45.772;4.804;2023-03-20T11:02:46;100320.06;;;14.71
74321;BMP280;62738;45.772;4.804;2023-03-20T11:05:24;100312.31;;;14.25
74321;BMP280;62738;45.772;4.804;2023-03-20T11:08:06;100307.38;;;14.16
74321;BMP280;62738;45.772;4.804;2023-03-20T11:10:35;100322.06;;;14.34
74321;BMP280;62738;45.772;4.804;2023-03-20T11:13:23;100305.69;;;14.03
74321;BMP280;62738;45.772;4.804;2023-03-20T11:15:53;100296.94;;;14.34
74321;BMP280;62738;45.772;4.804;2023-03-20T11:18:23;100297.94;;;14.56
74321;BMP280;62738;45.772;4.804;2023-03-20T11:20:56;100290.81;;;14.45
74321;BMP280;62738;45.772;4.804;2023-03-20T11:23:26;100293.91;;;14.76
74321;BMP280;62738;45.772;4.804;2023-03-20T11:26:01;100293.72;;;14.37
74321;BMP280;62738;45.772;4.804;2023-03-20T11:31:05;100288.22;;;15.29
74321;BMP280;62738;45.772;4.804;2023-03-20T11:37:00;100273.53;;;16.15
74321;BMP280;62738;45.772;4.804;2023-03-20T11:39:36;100283.53;;;15.42
74321;BMP280;62738;45.772;4.804;2023-03-20T11:42:22;100284.59;;;15.00
74321;BMP280;62738;45.772;4.804;2023-03-20T11:45:03;100282.75;;;15.12
74321;BMP280;62738;45.772;4.804;2023-03-20T11:47:32;100280.16;;;15.43
74321;BMP280;62738;45.772;4.804;2023-03-20T11:50:03;100270.91;;;15.79
74321;BMP280;62738;45.772;4.804;2023-03-20T11:52:32;100273.09;;;15.81
74321;BMP280;62738;45.772;4.804;2023-03-20T11:55:02;100274.69;;;15.36
74321;BMP280;62738;45.772;4.804;2023-03-20T12:00:20;100261.59;;;16.05
74321;BMP280;62738;45.772;4.804;2023-03-20T12:02:48;100260.25;;;15.29
74321;BMP280;62738;45.772;4.804;2023-03-20T12:05:35;100257.63;;;15.60
74321;BMP280;62738;45.772;4.804;2023-03-20T12:08:07;100258.97;;;16.07
74321;BMP280;62738;45.772;4.804;2023-03-20T12:10:40;100251.72;;;15.18
74321;BMP280;62738;45.772;4.804;2023-03-20T12:13:31;100248.97;;;15.47
74321;BMP280;62738;45.772;4.804;2023-03-20T12:16:03;100246.47;;;15.80
74321;BMP280;62738;45.772;4.804;2023-03-20T12:19:01;100238.63;;;15.20
74321;BMP280;62738;45.772;4.804;2023-03-20T12:21:39;100231.97;;;15.06
74321;BMP280;62738;45.772;4.804;2023-03-20T12:24:14;100229.25;;;15.45
74321;BMP280;62738;45.772;4.804;2023-03-20T12:26:59;100221.47;;;16.22
74321;BMP280;62738;45.772;4.804;2023-03-20T12:29:36;100220.03;;;16.52
74321;BMP280;62738;45.772;4.804;2023-03-20T12:32:34;100219.13;;;14.84
74321;BMP280;62738;45.772;4.804;2023-03-20T12:35:27;100209.34;;;15.21
74321;BMP280;62738;45.772;4.804;2023-03-20T12:37:54;100208.44;;;14.90
74321;BMP280;62738;45.772;4.804;2023-03-20T12:40:27;100213.41;;;14.92
74321;BMP280;62738;45.772;4.804;2023-03-20T12:43:13;100209.75;;;14.99
74321;BMP280;62738;45.772;4.804;2023-03-20T12:45:54;100208.63;;;15.21
74321;BMP280;62738;45.772;4.804;2023-03-20T12:51:11;100192.00;;;15.13
74321;BMP280;62738;45.772;4.804;2023-03-20T12:54:10;100197.41;;;15.02
74321;BMP280;62738;45.772;4.804;2023-03-20T13:20:51;100154.75;;;14.92
74321;BMP280;62738;45.772;4.804;2023-03-20T13:23:45;100151.53;;;15.33
74321;BMP280;62738;45.772;4.804;2023-03-20T13:26:19;100145.06;;;16.10
74321;BMP280;62738;45.772;4.804;2023-03-20T13:37:22;100142.72;;;16.06
74321;BMP280;62738;45.772;4.804;2023-03-20T13:42:46;100145.94;;;16.43
74321;BMP280;62738;45.772;4.804;2023-03-20T13:48:00;100149.19;;;16.40
74321;BMP280;62738;45.772;4.804;2023-03-20T13:50:43;100148.09;;;16.54
74321;BMP280;62738;45.772;4.804;2023-03-20T13:53:26;100141.22;;;16.67
74321;BMP280;62738;45.772;4.804;2023-03-20T14:04:28;100140.41;;;16.24
74321;BMP280;62738;45.772;4.804;2023-03-20T14:06:57;100138.22;;;16.22
74321;BMP280;62738;45.772;4.804;2023-03-20T14:09:35;100136.69;;;16.00
74321;BMP280;62738;45.772;4.804;2023-03-20T14:12:06;100139.47;;;16.10
74321;BMP280;62738;45.772;4.804;2023-03-20T14:14:42;100132.66;;;15.63
74321;BMP280;62738;45.772;4.804;2023-03-20T14:17:26;100137.38;;;15.60
74321;BMP280;62738;45.772;4.804;2023-03-20T14:19:54;100138.88;;;15.52
74321;BMP280;62738;45.772;4.804;2023-03-20T14:22:26;100136.34;;;15.65
74321;BMP280;62738;45.772;4.804;2023-03-20T14:25:16;100135.91;;;15.69
74321;BMP280;62738;45.772;4.804;2023-03-20T14:27:56;100130.13;;;16.48
74321;BMP280;62738;45.772;4.804;2023-03-20T14:35:42;100112.31;;;17.40
74321;BMP280;62738;45.772;4.804;2023-03-20T14:41:04;100114.34;;;17.84
74321;BMP280;62738;45.772;4.804;2023-03-20T14:43:51;100112.25;;;16.32
74321;BMP280;62738;45.772;4.804;2023-03-20T14:48:54;100108.13;;;16.02
74321;BMP280;62738;45.772;4.804;2023-03-20T14:51:40;100101.16;;;16.12
74321;BMP280;62738;45.772;4.804;2023-03-20T14:54:25;100103.38;;;15.64
74321;BMP280;62738;45.772;4.804;2023-03-20T14:56:52;100101.66;;;15.90
74321;BMP280;62738;45.772;4.804;2023-03-20T14:59:21;100105.47;;;15.94
74321;BMP280;62738;45.772;4.804;2023-03-20T15:04:51;100090.72;;;16.03
74321;BMP280;62738;45.772;4.804;2023-03-20T15:07:23;100093.50;;;16.03
74321;BMP280;62738;45.772;4.804;2023-03-20T15:09:54;100091.31;;;16.33
74321;BMP280;62738;45.772;4.804;2023-03-20T15:12:27;100082.59;;;16.38
74321;BMP280;62738;45.772;4.804;2023-03-20T15:14:59;100091.47;;;16.77
74321;BMP280;62738;45.772;4.804;2023-03-20T15:17:34;100085.50;;;17.04
74321;BMP280;62738;45.772;4.804;2023-03-20T15:20:09;100077.28;;;16.96
74321;BMP280;62738;45.772;4.804;2023-03-20T15:22:52;100071.22;;;17.44
74321;BMP280;62738;45.772;4.804;2023-03-20T15:25:30;100081.88;;;16.59
74321;BMP280;62738;45.772;4.804;2023-03-20T15:27:58;100075.31;;;16.66
74321;BMP280;62738;45.772;4.804;2023-03-20T15:30:25;100065.72;;;16.69
74321;BMP280;62738;45.772;4.804;2023-03-20T15:32:53;100068.59;;;16.59
74321;BMP280;62738;45.772;4.804;2023-03-20T15:35:22;100068.72;;;16.61
74321;BMP280;62738;45.772;4.804;2023-03-20T15:37:52;100061.47;;;16.68
74321;BMP280;62738;45.772;4.804;2023-03-20T15:40:28;100070.38;;;16.12
74321;BMP280;62738;45.772;4.804;2023-03-20T15:43:17;100074.28;;;16.19
74321;BMP280;62738;45.772;4.804;2023-03-20T15:45:44;100067.28;;;16.30
74321;BMP280;62738;45.772;4.804;2023-03-20T15:48:16;100063.72;;;16.60
74321;BMP280;62738;45.772;4.804;2023-03-20T15:50:47;100061.84;;;16.32
74321;BMP280;62738;45.772;4.804;2023-03-20T15:53:21;100065.66;;;16.57
74321;BMP280;62738;45.772;4.804;2023-03-20T15:55:51;100064.13;;;16.66
74321;BMP280;62738;45.772;4.804;2023-03-20T15:58:23;100056.41;;;16.88
74321;BMP280;62738;45.772;4.804;2023-03-20T16:00:52;100059.97;;;16.88
74321;BMP280;62738;45.772;4.804;2023-03-20T16:03:20;100061.78;;;16.62
74321;BMP280;62738;45.772;4.804;2023-03-20T16:05:50;100062.63;;;16.22
74321;BMP280;62738;45.772;4.804;2023-03-20T16:08:27;100058.66;;;16.47
74321;BMP280;62738;45.772;4.804;2023-03-20T16:10:57;100061.78;;;16.62
74321;BMP280;62738;45.772;4.804;2023-03-20T16:13:25;100054.53;;;16.69
74321;BMP280;62738;45.772;4.804;2023-03-20T16:15:54;100051.06;;;16.38
74321;BMP280;62738;45.772;4.804;2023-03-20T16:18:21;100049.19;;;16.73
74321;BMP280;62738;45.772;4.804;2023-03-20T16:20:53;100050.84;;;16.45
74321;BMP280;62738;45.772;4.804;2023-03-20T16:23:40;100058.16;;;16.50
74321;BMP280;62738;45.772;4.804;2023-03-20T16:26:12;100052.28;;;16.25
74321;BMP280;62738;45.772;4.804;2023-03-20T16:28:51;100047.91;;;16.22
74321;BMP280;62738;45.772;4.804;2023-03-20T16:31:22;100051.38;;;16.53
74321;BMP280;62738;45.772;4.804;2023-03-20T16:33:51;100054.84;;;16.63